sensor_id;sensor_type;location;lat;lon;timestamp;P1;durP1;ratioP1;P2;durP2;ratioP2
72319;SDS011;60269;52.502;16.732;2023-05-10T00:00:46;9.33;;;3.03;;
72319;SDS011;60269;52.502;16.732;2023-05-10T00:04:18;9.63;;;3.00;;
72319;SDS011;60269;52.502;16.732;2023-05-10T00:07:50;6.70;;;2.40;;
72319;SDS011;60269;52.502;16.732;2023-05-10T00:11:22;9.10;;;2.67;;
72319;SDS011;60269;52.502;16.732;2023-05-10T00:14:56;10.97;;;2.80;;
72319;SDS011;60269;52.502;16.732;2023-05-10T00:18:28;9.23;;;2.70;;
72319;SDS011;60269;52.502;16.732;2023-05-10T00:22:00;12.10;;;3.05;;
72319;SDS011;60269;52.502;16.732;2023-05-10T00:25:32;9.07;;;2.33;;
72319;SDS011;60269;52.502;16.732;2023-05-10T00:29:04;8.97;;;2.40;;
72319;SDS011;60269;52.502;16.732;2023-05-10T00:32:35;11.97;;;3.00;;
72319;SDS011;60269;52.502;16.732;2023-05-10T00:36:10;8.38;;;2.33;;
72319;SDS011;60269;52.502;16.732;2023-05-10T00:39:42;7.93;;;2.42;;
72319;SDS011;60269;52.502;16.732;2023-05-10T00:43:15;10.50;;;2.47;;
72319;SDS011;60269;52.502;16.732;2023-05-10T00:46:48;9.20;;;2.33;;
72319;SDS011;60269;52.502;16.732;2023-05-10T00:50:21;11.00;;;2.42;;
72319;SDS011;60269;52.502;16.732;2023-05-10T00:53:54;10.55;;;2.40;;
72319;SDS011;60269;52.502;16.732;2023-05-10T00:57:27;8.57;;;2.70;;
72319;SDS011;60269;52.502;16.732;2023-05-10T01:00:59;8.48;;;2.35;;
72319;SDS011;60269;52.502;16.732;2023-05-10T01:04:32;6.18;;;1.80;;
72319;SDS011;60269;52.502;16.732;2023-05-10T01:08:04;7.72;;;2.13;;
72319;SDS011;60269;52.502;16.732;2023-05-10T01:11:38;7.17;;;2.37;;
72319;SDS011;60269;52.502;16.732;2023-05-10T01:15:14;9.73;;;2.70;;
72319;SDS011;60269;52.502;16.732;2023-05-10T01:18:47;9.77;;;2.20;;
72319;SDS011;60269;52.502;16.732;2023-05-10T01:30:41;9.10;;;2.45;;
72319;SDS011;60269;52.502;16.732;2023-05-10T01:34:27;7.95;;;2.30;;
72319;SDS011;60269;52.502;16.732;2023-05-10T01:41:49;10.07;;;2.00;;
72319;SDS011;60269;52.502;16.732;2023-05-10T01:45:34;7.97;;;2.38;;
72319;SDS011;60269;52.502;16.732;2023-05-10T01:49:12;8.25;;;2.30;;
72319;SDS011;60269;52.502;16.732;2023-05-10T01:52:51;8.80;;;2.30;;
72319;SDS011;60269;52.502;16.732;2023-05-10T01:56:26;10.17;;;2.30;;
72319;SDS011;60269;52.502;16.732;2023-05-10T02:00:02;7.78;;;2.30;;
72319;SDS011;60269;52.502;16.732;2023-05-10T02:03:36;8.55;;;2.22;;
72319;SDS011;60269;52.502;16.732;2023-05-10T02:07:10;8.80;;;2.60;;
72319;SDS011;60269;52.502;16.732;2023-05-10T02:10:45;7.67;;;2.13;;
72319;SDS011;60269;52.502;16.732;2023-05-10T02:14:18;7.43;;;2.45;;
72319;SDS011;60269;52.502;16.732;2023-05-10T02:17:52;8.23;;;2.47;;
72319;SDS011;60269;52.502;16.732;2023-05-10T02:21:26;7.80;;;2.03;;
72319;SDS011;60269;52.502;16.732;2023-05-10T02:25:00;7.13;;;2.00;;
72319;SDS011;60269;52.502;16.732;2023-05-10T02:28:33;8.57;;;2.33;;
72319;SDS011;60269;52.502;16.732;2023-05-10T02:32:07;10.30;;;2.50;;
72319;SDS011;60269;52.502;16.732;2023-05-10T02:35:41;7.87;;;2.60;;
72319;SDS011;60269;52.502;16.732;2023-05-10T02:39:14;9.02;;;2.20;;
72319;SDS011;60269;52.502;16.732;2023-05-10T02:42:47;8.18;;;2.50;;
72319;SDS011;60269;52.502;16.732;2023-05-10T02:46:22;7.30;;;2.50;;
72319;SDS011;60269;52.502;16.732;2023-05-10T02:49:55;9.27;;;2.00;;
72319;SDS011;60269;52.502;16.732;2023-05-10T02:53:31;9.90;;;2.55;;
72319;SDS011;60269;52.502;16.732;2023-05-10T02:57:04;7.22;;;2.28;;
72319;SDS011;60269;52.502;16.732;2023-05-10T03:00:37;8.30;;;2.20;;
72319;SDS011;60269;52.502;16.732;2023-05-10T03:04:09;8.20;;;2.23;;
72319;SDS011;60269;52.502;16.732;2023-05-10T03:07:42;7.53;;;2.80;;
72319;SDS011;60269;52.502;16.732;2023-05-10T03:19:02;8.93;;;2.30;;
72319;SDS011;60269;52.502;16.732;2023-05-10T03:22:47;9.18;;;2.70;;
72319;SDS011;60269;52.502;16.732;2023-05-10T03:26:32;9.15;;;3.10;;
72319;SDS011;60269;52.502;16.732;2023-05-10T03:30:05;10.53;;;2.20;;
72319;SDS011;60269;52.502;16.732;2023-05-10T03:33:51;6.25;;;1.98;;
72319;SDS011;60269;52.502;16.732;2023-05-10T03:37:25;6.90;;;2.40;;
72319;SDS011;60269;52.502;16.732;2023-05-10T03:40:57;8.07;;;2.27;;
72319;SDS011;60269;52.502;16.732;2023-05-10T03:44:29;8.57;;;2.23;;
72319;SDS011;60269;52.502;16.732;2023-05-10T03:48:01;8.68;;;2.53;;
72319;SDS011;60269;52.502;16.732;2023-05-10T03:51:34;12.48;;;2.20;;
72319;SDS011;60269;52.502;16.732;2023-05-10T03:55:05;8.63;;;2.77;;
72319;SDS011;60269;52.502;16.732;2023-05-10T03:58:38;9.50;;;2.77;;
72319;SDS011;60269;52.502;16.732;2023-05-10T04:02:11;11.07;;;3.03;;
72319;SDS011;60269;52.502;16.732;2023-05-10T04:05:43;7.35;;;2.13;;
72319;SDS011;60269;52.502;16.732;2023-05-10T04:09:15;9.23;;;2.60;;
72319;SDS011;60269;52.502;16.732;2023-05-10T04:12:48;10.57;;;2.33;;
72319;SDS011;60269;52.502;16.732;2023-05-10T04:16:23;9.15;;;2.58;;
72319;SDS011;60269;52.502;16.732;2023-05-10T04:19:56;10.38;;;2.72;;
72319;SDS011;60269;52.502;16.732;2023-05-10T04:23:27;9.87;;;2.80;;
72319;SDS011;60269;52.502;16.732;2023-05-10T04:26:59;8.35;;;2.55;;
72319;SDS011;60269;52.502;16.732;2023-05-10T04:30:32;7.43;;;2.80;;
72319;SDS011;60269;52.502;16.732;2023-05-10T04:34:04;9.48;;;2.40;;
72319;SDS011;60269;52.502;16.732;2023-05-10T04:37:36;9.93;;;2.77;;
72319;SDS011;60269;52.502;16.732;2023-05-10T04:41:08;9.05;;;2.67;;
72319;SDS011;60269;52.502;16.732;2023-05-10T04:44:42;11.77;;;2.85;;
72319;SDS011;60269;52.502;16.732;2023-05-10T04:48:14;8.37;;;2.83;;
72319;SDS011;60269;52.502;16.732;2023-05-10T04:51:49;12.17;;;2.87;;
72319;SDS011;60269;52.502;16.732;2023-05-10T04:55:21;11.10;;;2.70;;
72319;SDS011;60269;52.502;16.732;2023-05-10T04:58:53;10.45;;;2.60;;
72319;SDS011;60269;52.502;16.732;2023-05-10T05:02:25;12.60;;;3.17;;
72319;SDS011;60269;52.502;16.732;2023-05-10T05:05:57;8.83;;;2.40;;
72319;SDS011;60269;52.502;16.732;2023-05-10T05:09:29;8.13;;;2.63;;
72319;SDS011;60269;52.502;16.732;2023-05-10T05:13:01;11.20;;;3.05;;
72319;SDS011;60269;52.502;16.732;2023-05-10T05:16:33;8.37;;;2.70;;
72319;SDS011;60269;52.502;16.732;2023-05-10T05:20:05;9.70;;;2.80;;
72319;SDS011;60269;52.502;16.732;2023-05-10T05:23:38;10.77;;;3.50;;
72319;SDS011;60269;52.502;16.732;2023-05-10T05:27:10;11.23;;;3.00;;
72319;SDS011;60269;52.502;16.732;2023-05-10T05:30:42;10.23;;;3.38;;
72319;SDS011;60269;52.502;16.732;2023-05-10T05:34:15;7.77;;;2.70;;
72319;SDS011;60269;52.502;16.732;2023-05-10T05:37:47;10.82;;;2.67;;
72319;SDS011;60269;52.502;16.732;2023-05-10T05:41:19;10.15;;;3.38;;
72319;SDS011;60269;52.502;16.732;2023-05-10T05:44:51;10.82;;;2.83;;
72319;SDS011;60269;52.502;16.732;2023-05-10T05:48:23;7.53;;;2.60;;
72319;SDS011;60269;52.502;16.732;2023-05-10T05:52:00;11.98;;;3.20;;
72319;SDS011;60269;52.502;16.732;2023-05-10T05:55:33;7.97;;;2.88;;
72319;SDS011;60269;52.502;16.732;2023-05-10T05:59:05;11.07;;;2.65;;
72319;SDS011;60269;52.502;16.732;2023-05-10T06:02:37;12.90;;;2.80;;
72319;SDS011;60269;52.502;16.732;2023-05-10T06:06:11;9.82;;;2.90;;
72319;SDS011;60269;52.502;16.732;2023-05-10T06:09:44;11.50;;;2.30;;
72319;SDS011;60269;52.502;16.732;2023-05-10T06:13:16;7.93;;;2.90;;
72319;SDS011;60269;52.502;16.732;2023-05-10T06:16:48;7.87;;;2.93;;
72319;SDS011;60269;52.502;16.732;2023-05-10T06:20:21;8.90;;;3.15;;
72319;SDS011;60269;52.502;16.732;2023-05-10T06:23:57;9.02;;;3.15;;
72319;SDS011;60269;52.502;16.732;2023-05-10T06:27:29;10.77;;;3.03;;
72319;SDS011;60269;52.502;16.732;2023-05-10T06:31:01;10.30;;;3.03;;
72319;SDS011;60269;52.502;16.732;2023-05-10T06:34:34;9.83;;;2.53;;
72319;SDS011;60269;52.502;16.732;2023-05-10T06:38:06;9.30;;;2.80;;
72319;SDS011;60269;52.502;16.732;2023-05-10T06:41:38;7.68;;;2.97;;
72319;SDS011;60269;52.502;16.732;2023-05-10T06:45:10;6.43;;;2.35;;
72319;SDS011;60269;52.502;16.732;2023-05-10T06:48:43;7.80;;;2.47;;
72319;SDS011;60269;52.502;16.732;2023-05-10T06:52:15;11.05;;;3.15;;
72319;SDS011;60269;52.502;16.732;2023-05-10T06:55:47;13.20;;;3.08;;
72319;SDS011;60269;52.502;16.732;2023-05-10T06:59:23;10.50;;;2.88;;
72319;SDS011;60269;52.502;16.732;2023-05-10T07:02:55;7.37;;;2.90;;
72319;SDS011;60269;52.502;16.732;2023-05-10T07:06:27;7.57;;;3.13;;
72319;SDS011;60269;52.502;16.732;2023-05-10T07:10:05;8.20;;;2.42;;
72319;SDS011;60269;52.502;16.732;2023-05-10T07:13:37;6.95;;;2.67;;
72319;SDS011;60269;52.502;16.732;2023-05-10T07:17:10;8.18;;;2.80;;
72319;SDS011;60269;52.502;16.732;2023-05-10T07:20:42;6.60;;;2.23;;
72319;SDS011;60269;52.502;16.732;2023-05-10T07:24:14;9.82;;;2.10;;
72319;SDS011;60269;52.502;16.732;2023-05-10T07:27:46;10.43;;;3.00;;
72319;SDS011;60269;52.502;16.732;2023-05-10T07:31:20;10.00;;;2.47;;
72319;SDS011;60269;52.502;16.732;2023-05-10T07:34:52;8.13;;;2.87;;
72319;SDS011;60269;52.502;16.732;2023-05-10T07:38:24;10.40;;;3.00;;
72319;SDS011;60269;52.502;16.732;2023-05-10T07:41:56;5.93;;;1.95;;
72319;SDS011;60269;52.502;16.732;2023-05-10T07:45:28;8.63;;;2.47;;
72319;SDS011;60269;52.502;16.732;2023-05-10T07:49:00;9.97;;;2.07;;
72319;SDS011;60269;52.502;16.732;2023-05-10T07:52:32;8.70;;;2.37;;
72319;SDS011;60269;52.502;16.732;2023-05-10T07:56:21;9.35;;;2.78;;
72319;SDS011;60269;52.502;16.732;2023-05-10T08:00:06;7.82;;;2.40;;
72319;SDS011;60269;52.502;16.732;2023-05-10T08:03:39;11.73;;;3.17;;
72319;SDS011;60269;52.502;16.732;2023-05-10T08:07:11;7.63;;;2.27;;
72319;SDS011;60269;52.502;16.732;2023-05-10T08:10:44;9.35;;;2.03;;
72319;SDS011;60269;52.502;16.732;2023-05-10T08:14:16;8.20;;;2.30;;
72319;SDS011;60269;52.502;16.732;2023-05-10T08:17:48;6.78;;;1.75;;
72319;SDS011;60269;52.502;16.732;2023-05-10T08:21:21;11.73;;;2.30;;
72319;SDS011;60269;52.502;16.732;2023-05-10T08:24:52;7.33;;;2.30;;
72319;SDS011;60269;52.502;16.732;2023-05-10T08:28:24;8.27;;;2.53;;
72319;SDS011;60269;52.502;16.732;2023-05-10T08:31:56;6.35;;;2.33;;
72319;SDS011;60269;52.502;16.732;2023-05-10T08:35:28;7.57;;;2.00;;
72319;SDS011;60269;52.502;16.732;2023-05-10T08:39:00;5.90;;;1.43;;
72319;SDS011;60269;52.502;16.732;2023-05-10T08:42:33;9.25;;;1.92;;
72319;SDS011;60269;52.502;16.732;2023-05-10T08:46:09;6.43;;;1.77;;
72319;SDS011;60269;52.502;16.732;2023-05-10T08:49:42;8.65;;;1.90;;
72319;SDS011;60269;52.502;16.732;2023-05-10T08:53:16;8.73;;;2.20;;
72319;SDS011;60269;52.502;16.732;2023-05-10T08:56:48;6.68;;;1.75;;
72319;SDS011;60269;52.502;16.732;2023-05-10T09:00:21;6.18;;;1.90;;
72319;SDS011;60269;52.502;16.732;2023-05-10T09:03:54;8.27;;;2.17;;
72319;SDS011;60269;52.502;16.732;2023-05-10T09:07:27;7.67;;;1.43;;
72319;SDS011;60269;52.502;16.732;2023-05-10T09:10:59;9.43;;;1.70;;
72319;SDS011;60269;52.502;16.732;2023-05-10T09:14:33;5.43;;;1.13;;
72319;SDS011;60269;52.502;16.732;2023-05-10T09:18:07;7.03;;;1.73;;
72319;SDS011;60269;52.502;16.732;2023-05-10T09:21:40;7.93;;;1.50;;
72319;SDS011;60269;52.502;16.732;2023-05-10T09:25:13;6.53;;;1.47;;
72319;SDS011;60269;52.502;16.732;2023-05-10T09:28:50;5.47;;;0.90;;
72319;SDS011;60269;52.502;16.732;2023-05-10T09:32:36;6.13;;;1.20;;
72319;SDS011;60269;52.502;16.732;2023-05-10T09:36:11;7.43;;;1.52;;
72319;SDS011;60269;52.502;16.732;2023-05-10T09:39:45;5.50;;;1.57;;
72319;SDS011;60269;52.502;16.732;2023-05-10T09:43:17;6.47;;;1.50;;
72319;SDS011;60269;52.502;16.732;2023-05-10T09:46:50;7.97;;;1.27;;
72319;SDS011;60269;52.502;16.732;2023-05-10T09:50:24;5.05;;;1.20;;
72319;SDS011;60269;52.502;16.732;2023-05-10T09:54:12;4.80;;;1.23;;
72319;SDS011;60269;52.502;16.732;2023-05-10T09:57:46;4.50;;;1.30;;
72319;SDS011;60269;52.502;16.732;2023-05-10T10:01:19;4.53;;;1.27;;
72319;SDS011;60269;52.502;16.732;2023-05-10T10:04:51;4.55;;;1.20;;
72319;SDS011;60269;52.502;16.732;2023-05-10T10:08:25;4.35;;;1.00;;
72319;SDS011;60269;52.502;16.732;2023-05-10T10:11:58;4.50;;;1.10;;
72319;SDS011;60269;52.502;16.732;2023-05-10T10:15:34;5.90;;;1.10;;
72319;SDS011;60269;52.502;16.732;2023-05-10T10:19:06;6.95;;;1.17;;
72319;SDS011;60269;52.502;16.732;2023-05-10T10:22:39;8.23;;;1.10;;
72319;SDS011;60269;52.502;16.732;2023-05-10T10:26:11;7.77;;;1.30;;
72319;SDS011;60269;52.502;16.732;2023-05-10T10:29:47;17.08;;;1.83;;
72319;SDS011;60269;52.502;16.732;2023-05-10T10:37:19;6.32;;;1.20;;
72319;SDS011;60269;52.502;16.732;2023-05-10T10:41:10;5.27;;;0.90;;
72319;SDS011;60269;52.502;16.732;2023-05-10T10:45:32;7.30;;;1.67;;
72319;SDS011;60269;52.502;16.732;2023-05-10T10:49:10;9.43;;;1.73;;
72319;SDS011;60269;52.502;16.732;2023-05-10T10:52:44;5.75;;;1.25;;
72319;SDS011;60269;52.502;16.732;2023-05-10T10:56:17;6.70;;;1.33;;
72319;SDS011;60269;52.502;16.732;2023-05-10T11:07:44;5.55;;;1.17;;
72319;SDS011;60269;52.502;16.732;2023-05-10T11:11:23;11.90;;;1.90;;
72319;SDS011;60269;52.502;16.732;2023-05-10T11:14:58;5.50;;;1.77;;
72319;SDS011;60269;52.502;16.732;2023-05-10T11:18:30;7.38;;;1.83;;
72319;SDS011;60269;52.502;16.732;2023-05-10T11:25:41;5.13;;;1.65;;
72319;SDS011;60269;52.502;16.732;2023-05-10T11:29:15;5.00;;;1.70;;
72319;SDS011;60269;52.502;16.732;2023-05-10T11:32:47;5.43;;;2.33;;
72319;SDS011;60269;52.502;16.732;2023-05-10T11:36:20;7.57;;;1.92;;
72319;SDS011;60269;52.502;16.732;2023-05-10T11:39:55;8.60;;;2.20;;
72319;SDS011;60269;52.502;16.732;2023-05-10T11:43:28;6.83;;;1.50;;
72319;SDS011;60269;52.502;16.732;2023-05-10T11:47:02;5.40;;;1.27;;
72319;SDS011;60269;52.502;16.732;2023-05-10T11:50:35;5.95;;;1.55;;
72319;SDS011;60269;52.502;16.732;2023-05-10T11:54:07;11.95;;;1.50;;
72319;SDS011;60269;52.502;16.732;2023-05-10T11:57:41;7.75;;;1.23;;
72319;SDS011;60269;52.502;16.732;2023-05-10T12:01:15;5.87;;;1.57;;
72319;SDS011;60269;52.502;16.732;2023-05-10T12:04:47;6.88;;;1.65;;
72319;SDS011;60269;52.502;16.732;2023-05-10T12:08:21;4.57;;;1.90;;
72319;SDS011;60269;52.502;16.732;2023-05-10T12:11:57;6.13;;;2.05;;
72319;SDS011;60269;52.502;16.732;2023-05-10T12:15:29;5.67;;;1.80;;
72319;SDS011;60269;52.502;16.732;2023-05-10T12:19:01;5.63;;;1.80;;
72319;SDS011;60269;52.502;16.732;2023-05-10T12:22:34;6.95;;;2.97;;
72319;SDS011;60269;52.502;16.732;2023-05-10T12:26:08;5.22;;;2.28;;
72319;SDS011;60269;52.502;16.732;2023-05-10T12:29:41;4.75;;;2.13;;
72319;SDS011;60269;52.502;16.732;2023-05-10T12:33:15;5.63;;;2.10;;
72319;SDS011;60269;52.502;16.732;2023-05-10T12:36:50;6.10;;;1.93;;
72319;SDS011;60269;52.502;16.732;2023-05-10T12:40:23;5.82;;;2.25;;
72319;SDS011;60269;52.502;16.732;2023-05-10T12:43:56;5.03;;;1.77;;
72319;SDS011;60269;52.502;16.732;2023-05-10T12:47:27;6.35;;;1.60;;
72319;SDS011;60269;52.502;16.732;2023-05-10T12:51:00;4.97;;;1.97;;
72319;SDS011;60269;52.502;16.732;2023-05-10T12:54:33;5.07;;;2.20;;
72319;SDS011;60269;52.502;16.732;2023-05-10T12:58:05;6.78;;;2.13;;
72319;SDS011;60269;52.502;16.732;2023-05-10T13:01:37;5.60;;;2.10;;
72319;SDS011;60269;52.502;16.732;2023-05-10T13:05:09;5.43;;;2.13;;
72319;SDS011;60269;52.502;16.732;2023-05-10T13:08:43;5.40;;;2.10;;
72319;SDS011;60269;52.502;16.732;2023-05-10T13:12:14;6.35;;;1.92;;
72319;SDS011;60269;52.502;16.732;2023-05-10T13:15:47;5.70;;;2.08;;
72319;SDS011;60269;52.502;16.732;2023-05-10T13:19:18;5.75;;;2.00;;
72319;SDS011;60269;52.502;16.732;2023-05-10T13:22:53;5.93;;;2.60;;
72319;SDS011;60269;52.502;16.732;2023-05-10T13:26:26;6.30;;;2.30;;
72319;SDS011;60269;52.502;16.732;2023-05-10T13:29:58;6.75;;;1.90;;
72319;SDS011;60269;52.502;16.732;2023-05-10T13:33:30;4.53;;;2.10;;
72319;SDS011;60269;52.502;16.732;2023-05-10T13:37:02;6.47;;;2.05;;
72319;SDS011;60269;52.502;16.732;2023-05-10T13:40:34;5.50;;;2.13;;
72319;SDS011;60269;52.502;16.732;2023-05-10T13:44:07;6.30;;;2.27;;
72319;SDS011;60269;52.502;16.732;2023-05-10T13:47:39;4.80;;;1.92;;
72319;SDS011;60269;52.502;16.732;2023-05-10T13:51:12;5.22;;;2.08;;
72319;SDS011;60269;52.502;16.732;2023-05-10T13:54:44;7.65;;;1.95;;
72319;SDS011;60269;52.502;16.732;2023-05-10T13:58:16;7.40;;;2.42;;
72319;SDS011;60269;52.502;16.732;2023-05-10T14:01:48;6.70;;;2.27;;
72319;SDS011;60269;52.502;16.732;2023-05-10T14:05:20;7.85;;;2.53;;
72319;SDS011;60269;52.502;16.732;2023-05-10T14:08:57;7.60;;;2.38;;
72319;SDS011;60269;52.502;16.732;2023-05-10T14:12:29;5.30;;;2.00;;
72319;SDS011;60269;52.502;16.732;2023-05-10T14:16:00;5.07;;;1.70;;
72319;SDS011;60269;52.502;16.732;2023-05-10T14:19:33;7.23;;;2.30;;
72319;SDS011;60269;52.502;16.732;2023-05-10T14:23:05;4.47;;;1.90;;
72319;SDS011;60269;52.502;16.732;2023-05-10T14:26:39;5.90;;;2.78;;
72319;SDS011;60269;52.502;16.732;2023-05-10T14:30:11;6.90;;;2.88;;
72319;SDS011;60269;52.502;16.732;2023-05-10T14:33:43;6.60;;;2.83;;
72319;SDS011;60269;52.502;16.732;2023-05-10T14:37:27;11.85;;;3.22;;
72319;SDS011;60269;52.502;16.732;2023-05-10T14:41:33;5.50;;;2.00;;
72319;SDS011;60269;52.502;16.732;2023-05-10T14:45:31;6.10;;;2.40;;
72319;SDS011;60269;52.502;16.732;2023-05-10T14:49:03;8.77;;;2.90;;
72319;SDS011;60269;52.502;16.732;2023-05-10T14:52:35;5.57;;;2.50;;
72319;SDS011;60269;52.502;16.732;2023-05-10T14:56:07;5.65;;;2.15;;
72319;SDS011;60269;52.502;16.732;2023-05-10T14:59:39;6.18;;;1.58;;
72319;SDS011;60269;52.502;16.732;2023-05-10T15:03:12;8.68;;;1.80;;
72319;SDS011;60269;52.502;16.732;2023-05-10T15:06:44;6.30;;;2.47;;
72319;SDS011;60269;52.502;16.732;2023-05-10T15:10:17;7.82;;;2.88;;
72319;SDS011;60269;52.502;16.732;2023-05-10T15:13:49;6.45;;;2.58;;
72319;SDS011;60269;52.502;16.732;2023-05-10T15:17:21;10.98;;;2.50;;
72319;SDS011;60269;52.502;16.732;2023-05-10T15:20:53;10.48;;;1.98;;
72319;SDS011;60269;52.502;16.732;2023-05-10T15:24:28;7.77;;;2.53;;
72319;SDS011;60269;52.502;16.732;2023-05-10T15:28:08;6.88;;;2.45;;
72319;SDS011;60269;52.502;16.732;2023-05-10T15:31:39;6.10;;;2.03;;
72319;SDS011;60269;52.502;16.732;2023-05-10T15:35:12;5.70;;;1.83;;
72319;SDS011;60269;52.502;16.732;2023-05-10T15:38:44;7.23;;;2.13;;
72319;SDS011;60269;52.502;16.732;2023-05-10T15:42:16;5.35;;;1.50;;
72319;SDS011;60269;52.502;16.732;2023-05-10T15:45:48;5.63;;;1.45;;
72319;SDS011;60269;52.502;16.732;2023-05-10T15:49:20;6.18;;;2.28;;
72319;SDS011;60269;52.502;16.732;2023-05-10T15:52:52;5.57;;;1.80;;
72319;SDS011;60269;52.502;16.732;2023-05-10T15:56:24;6.00;;;1.52;;
72319;SDS011;60269;52.502;16.732;2023-05-10T15:59:57;10.25;;;1.73;;
72319;SDS011;60269;52.502;16.732;2023-05-10T16:03:29;6.28;;;1.98;;
72319;SDS011;60269;52.502;16.732;2023-05-10T16:07:01;10.43;;;2.10;;
72319;SDS011;60269;52.502;16.732;2023-05-10T16:10:36;8.00;;;2.20;;
72319;SDS011;60269;52.502;16.732;2023-05-10T16:14:09;13.90;;;2.92;;
72319;SDS011;60269;52.502;16.732;2023-05-10T16:17:41;6.30;;;1.70;;
72319;SDS011;60269;52.502;16.732;2023-05-10T16:21:13;6.45;;;2.22;;
72319;SDS011;60269;52.502;16.732;2023-05-10T16:24:48;8.47;;;2.30;;
72319;SDS011;60269;52.502;16.732;2023-05-10T16:28:24;6.73;;;2.30;;
72319;SDS011;60269;52.502;16.732;2023-05-10T16:31:56;6.40;;;1.92;;
72319;SDS011;60269;52.502;16.732;2023-05-10T16:35:28;7.75;;;1.95;;
72319;SDS011;60269;52.502;16.732;2023-05-10T16:39:00;8.77;;;2.13;;
72319;SDS011;60269;52.502;16.732;2023-05-10T16:42:33;5.47;;;2.20;;
72319;SDS011;60269;52.502;16.732;2023-05-10T16:46:09;7.17;;;2.37;;
72319;SDS011;60269;52.502;16.732;2023-05-10T16:49:42;5.85;;;2.40;;
72319;SDS011;60269;52.502;16.732;2023-05-10T16:53:14;5.70;;;1.90;;
72319;SDS011;60269;52.502;16.732;2023-05-10T16:56:46;6.20;;;2.30;;
72319;SDS011;60269;52.502;16.732;2023-05-10T17:00:19;4.90;;;1.80;;
72319;SDS011;60269;52.502;16.732;2023-05-10T17:03:51;7.55;;;2.03;;
72319;SDS011;60269;52.502;16.732;2023-05-10T17:07:23;5.00;;;1.80;;
72319;SDS011;60269;52.502;16.732;2023-05-10T17:10:59;5.28;;;2.10;;
72319;SDS011;60269;52.502;16.732;2023-05-10T17:14:32;6.78;;;1.98;;
72319;SDS011;60269;52.502;16.732;2023-05-10T17:18:04;8.97;;;3.20;;
72319;SDS011;60269;52.502;16.732;2023-05-10T17:21:39;8.15;;;1.60;;
72319;SDS011;60269;52.502;16.732;2023-05-10T17:25:11;4.90;;;2.00;;
72319;SDS011;60269;52.502;16.732;2023-05-10T17:28:43;6.65;;;2.30;;
72319;SDS011;60269;52.502;16.732;2023-05-10T17:32:15;5.00;;;1.80;;
72319;SDS011;60269;52.502;16.732;2023-05-10T17:35:47;5.80;;;1.67;;
72319;SDS011;60269;52.502;16.732;2023-05-10T17:39:19;5.80;;;2.00;;
72319;SDS011;60269;52.502;16.732;2023-05-10T17:42:52;8.27;;;1.65;;
72319;SDS011;60269;52.502;16.732;2023-05-10T17:46:24;6.22;;;1.77;;
72319;SDS011;60269;52.502;16.732;2023-05-10T17:49:56;10.67;;;2.33;;
72319;SDS011;60269;52.502;16.732;2023-05-10T17:53:28;8.73;;;2.80;;
72319;SDS011;60269;52.502;16.732;2023-05-10T17:57:00;7.57;;;1.88;;
72319;SDS011;60269;52.502;16.732;2023-05-10T18:00:32;5.15;;;1.55;;
72319;SDS011;60269;52.502;16.732;2023-05-10T18:04:04;6.88;;;1.58;;
72319;SDS011;60269;52.502;16.732;2023-05-10T18:07:36;5.67;;;1.70;;
72319;SDS011;60269;52.502;16.732;2023-05-10T18:11:09;4.72;;;1.45;;
72319;SDS011;60269;52.502;16.732;2023-05-10T18:14:42;8.95;;;1.98;;
72319;SDS011;60269;52.502;16.732;2023-05-10T18:18:15;7.38;;;1.67;;
72319;SDS011;60269;52.502;16.732;2023-05-10T18:21:47;5.70;;;1.73;;
72319;SDS011;60269;52.502;16.732;2023-05-10T18:25:19;7.30;;;1.43;;
72319;SDS011;60269;52.502;16.732;2023-05-10T18:28:52;6.22;;;1.85;;
72319;SDS011;60269;52.502;16.732;2023-05-10T18:32:24;6.57;;;1.85;;
72319;SDS011;60269;52.502;16.732;2023-05-10T18:35:58;7.07;;;2.28;;
72319;SDS011;60269;52.502;16.732;2023-05-10T18:39:32;7.53;;;1.87;;
72319;SDS011;60269;52.502;16.732;2023-05-10T18:43:04;7.53;;;2.10;;
72319;SDS011;60269;52.502;16.732;2023-05-10T18:46:36;8.63;;;2.00;;
72319;SDS011;60269;52.502;16.732;2023-05-10T18:50:08;8.10;;;2.50;;
72319;SDS011;60269;52.502;16.732;2023-05-10T18:53:42;6.13;;;1.60;;
72319;SDS011;60269;52.502;16.732;2023-05-10T18:57:14;9.47;;;1.80;;
72319;SDS011;60269;52.502;16.732;2023-05-10T19:00:46;7.07;;;1.55;;
72319;SDS011;60269;52.502;16.732;2023-05-10T19:04:20;5.47;;;1.45;;
72319;SDS011;60269;52.502;16.732;2023-05-10T19:07:52;8.38;;;2.22;;
72319;SDS011;60269;52.502;16.732;2023-05-10T19:11:24;6.93;;;1.70;;
72319;SDS011;60269;52.502;16.732;2023-05-10T19:14:56;7.18;;;2.08;;
72319;SDS011;60269;52.502;16.732;2023-05-10T19:18:28;5.72;;;1.50;;
72319;SDS011;60269;52.502;16.732;2023-05-10T19:22:06;6.85;;;1.90;;
72319;SDS011;60269;52.502;16.732;2023-05-10T19:26:29;6.40;;;1.70;;
72319;SDS011;60269;52.502;16.732;2023-05-10T19:30:02;9.35;;;2.92;;
72319;SDS011;60269;52.502;16.732;2023-05-10T19:33:35;9.70;;;2.35;;
72319;SDS011;60269;52.502;16.732;2023-05-10T19:37:09;9.02;;;2.15;;
72319;SDS011;60269;52.502;16.732;2023-05-10T19:40:41;6.70;;;2.20;;
72319;SDS011;60269;52.502;16.732;2023-05-10T19:44:13;8.15;;;2.45;;
72319;SDS011;60269;52.502;16.732;2023-05-10T19:47:46;10.38;;;2.88;;
72319;SDS011;60269;52.502;16.732;2023-05-10T19:51:18;7.18;;;2.55;;
72319;SDS011;60269;52.502;16.732;2023-05-10T19:54:50;9.27;;;3.03;;
72319;SDS011;60269;52.502;16.732;2023-05-10T19:58:22;10.77;;;2.77;;
72319;SDS011;60269;52.502;16.732;2023-05-10T20:01:55;9.73;;;2.45;;
72319;SDS011;60269;52.502;16.732;2023-05-10T20:05:27;10.57;;;2.28;;
72319;SDS011;60269;52.502;16.732;2023-05-10T20:08:59;7.37;;;2.23;;
72319;SDS011;60269;52.502;16.732;2023-05-10T20:12:31;8.23;;;1.93;;
72319;SDS011;60269;52.502;16.732;2023-05-10T20:16:03;8.15;;;2.15;;
72319;SDS011;60269;52.502;16.732;2023-05-10T20:19:36;7.90;;;2.17;;
72319;SDS011;60269;52.502;16.732;2023-05-10T20:23:08;9.27;;;2.40;;
72319;SDS011;60269;52.502;16.732;2023-05-10T20:26:40;7.13;;;1.80;;
72319;SDS011;60269;52.502;16.732;2023-05-10T20:30:13;8.35;;;1.67;;
72319;SDS011;60269;52.502;16.732;2023-05-10T20:33:46;6.60;;;1.70;;
72319;SDS011;60269;52.502;16.732;2023-05-10T20:37:17;6.50;;;1.65;;
72319;SDS011;60269;52.502;16.732;2023-05-10T20:40:49;7.23;;;1.80;;
72319;SDS011;60269;52.502;16.732;2023-05-10T20:44:22;6.45;;;1.75;;
72319;SDS011;60269;52.502;16.732;2023-05-10T20:47:54;5.95;;;1.77;;
72319;SDS011;60269;52.502;16.732;2023-05-10T20:51:26;5.90;;;1.70;;
72319;SDS011;60269;52.502;16.732;2023-05-10T20:55:01;6.90;;;1.90;;
72319;SDS011;60269;52.502;16.732;2023-05-10T20:58:32;7.47;;;1.67;;
72319;SDS011;60269;52.502;16.732;2023-05-10T21:02:04;6.05;;;1.65;;
72319;SDS011;60269;52.502;16.732;2023-05-10T21:05:37;8.40;;;2.63;;
72319;SDS011;60269;52.502;16.732;2023-05-10T21:09:09;7.93;;;1.77;;
72319;SDS011;60269;52.502;16.732;2023-05-10T21:12:41;8.15;;;1.90;;
72319;SDS011;60269;52.502;16.732;2023-05-10T21:16:14;8.38;;;2.00;;
72319;SDS011;60269;52.502;16.732;2023-05-10T21:19:45;6.77;;;1.53;;
72319;SDS011;60269;52.502;16.732;2023-05-10T21:23:17;7.10;;;2.00;;
72319;SDS011;60269;52.502;16.732;2023-05-10T21:26:50;7.03;;;2.15;;
72319;SDS011;60269;52.502;16.732;2023-05-10T21:30:22;8.52;;;1.70;;
72319;SDS011;60269;52.502;16.732;2023-05-10T21:33:54;6.37;;;1.87;;
72319;SDS011;60269;52.502;16.732;2023-05-10T21:37:26;6.17;;;1.70;;
72319;SDS011;60269;52.502;16.732;2023-05-10T21:40:58;9.85;;;2.28;;